Time;durP1;ratioP1;P1;durP2;ratioP2;P2;SDS_P1;SDS_P2;PMS_P1;PMS_P2;Temp;Humidity;BMP_temperature;BMP_pressure;BME280_temperature;BME280_humidity;BME280_pressure;Samples;Min_cycle;Max_cycle;Signal;HPM_P1;HPM_P2
2022/10/13 00:00:14;;;;;;;25.90;12.93;;;;;;;;;;5098223;28;20258;-63
2022/10/13 00:02:42;;;;;;;23.23;13.07;;;;;;;;;;5098580;28;20212;-62
2022/10/13 00:05:11;;;;;;;24.80;13.47;;;;;;;;;;5097922;28;20225;-63
2022/10/13 00:07:39;;;;;;;23.57;14.30;;;;;;;;;;5098275;28;20205;-62
2022/10/13 00:10:07;;;;;;;24.10;13.60;;;;;;;;;;5098211;28;20661;-63
2022/10/13 00:12:36;;;;;;;26.63;14.30;;;;;;;;;;5098144;28;20201;-63
2022/10/13 00:15:04;;;;;;;19.87;13.60;;;;;;;;;;5098128;28;20229;-63
2022/10/13 00:17:32;;;;;;;19.30;12.43;;;;;;;;;;5098344;28;20212;-62
2022/10/13 00:20:00;;;;;;;22.10;13.47;;;;;;;;;;5097976;28;20201;-62
2022/10/13 00:22:29;;;;;;;20.60;13.67;;;;;;;;;;5098022;28;20601;-63
2022/10/13 00:24:57;;;;;;;20.93;12.87;;;;;;;;;;5098137;28;20232;-63
2022/10/13 00:27:25;;;;;;;23.67;12.73;;;;;;;;;;5097671;28;20612;-63
2022/10/13 00:29:53;;;;;;;18.47;12.80;;;;;;;;;;5098237;28;20205;-62
2022/10/13 00:32:21;;;;;;;22.77;12.90;;;;;;;;;;5097959;28;20292;-62
2022/10/13 00:34:49;;;;;;;20.17;12.60;;;;;;;;;;5097516;28;20727;-62
2022/10/13 00:37:17;;;;;;;19.57;13.00;;;;;;;;;;5097740;28;20669;-62
2022/10/13 00:39:46;;;;;;;28.43;14.17;;;;;;;;;;5098066;28;20205;-63
2022/10/13 00:42:14;;;;;;;25.03;14.73;;;;;;;;;;5097822;28;20209;-62
2022/10/13 00:44:59;;;;;;;24.13;13.93;;;;;;;;;;5097878;28;20279;-61
2022/10/13 00:47:29;;;;;;;22.47;14.37;;;;;;;;;;5097757;28;20224;-61
2022/10/13 00:49:57;;;;;;;24.23;15.27;;;;;;;;;;5097557;28;20212;-61
2022/10/13 00:52:25;;;;;;;21.90;14.57;;;;;;;;;;5097417;28;20210;-61
2022/10/13 00:54:55;;;;;;;26.17;15.30;;;;;;;;;;5097765;28;20225;-62
2022/10/13 00:57:23;;;;;;;24.13;15.37;;;;;;;;;;5084921;28;20209;-61
2022/10/13 00:59:51;;;;;;;25.83;16.10;;;;;;;;;;5099558;28;20209;-61
2022/10/13 01:02:19;;;;;;;26.13;16.30;;;;;;;;;;5102070;28;20205;-61
2022/10/13 01:04:48;;;;;;;21.47;14.90;;;;;;;;;;5101449;28;20217;-61
2022/10/13 01:07:17;;;;;;;25.17;15.67;;;;;;;;;;5101865;28;20235;-61
2022/10/13 01:09:46;;;;;;;24.53;16.10;;;;;;;;;;5101799;28;20220;-61
2022/10/13 01:12:23;;;;;;;25.53;15.03;;;;;;;;;;5101473;28;20216;-63
2022/10/13 01:14:55;;;;;;;21.93;13.13;;;;;;;;;;5101601;28;20225;-63
2022/10/13 01:17:30;;;;;;;21.23;13.33;;;;;;;;;;5101716;28;20209;-63
2022/10/13 01:20:22;;;;;;;20.60;12.80;;;;;;;;;;5101320;28;20219;-61
2022/10/13 01:22:57;;;;;;;17.27;12.40;;;;;;;;;;5101212;28;20205;-62
2022/10/13 01:25:39;;;;;;;15.17;12.27;;;;;;;;;;5101355;28;20205;-61
2022/10/13 01:28:24;;;;;;;21.63;11.77;;;;;;;;;;5101338;28;20240;-61
2022/10/13 01:30:58;;;;;;;23.10;11.87;;;;;;;;;;5101366;28;20210;-62
2022/10/13 01:33:30;;;;;;;22.30;12.50;;;;;;;;;;5101461;28;20233;-62
2022/10/13 01:36:03;;;;;;;17.57;10.43;;;;;;;;;;5100752;28;20220;-62
2022/10/13 01:38:35;;;;;;;16.77;11.30;;;;;;;;;;5101786;28;20210;-62
2022/10/13 01:41:06;;;;;;;16.57;11.33;;;;;;;;;;5101103;28;20210;-63
2022/10/13 01:43:39;;;;;;;19.20;12.10;;;;;;;;;;5101233;28;20224;-61
2022/10/13 01:46:12;;;;;;;19.83;11.63;;;;;;;;;;5101097;28;20201;-61
2022/10/13 01:48:41;;;;;;;17.13;11.57;;;;;;;;;;5100907;28;20210;-61
2022/10/13 01:51:11;;;;;;;18.93;10.90;;;;;;;;;;5100806;28;20216;-63
2022/10/13 01:53:39;;;;;;;18.03;11.53;;;;;;;;;;5099892;28;20241;-62
2022/10/13 01:56:07;;;;;;;16.87;11.87;;;;;;;;;;5099668;28;20212;-63
2022/10/13 01:58:36;;;;;;;21.63;13.07;;;;;;;;;;5099375;28;20220;-63
2022/10/13 02:01:10;;;;;;;21.37;11.83;;;;;;;;;;5099482;28;20228;-63
2022/10/13 02:03:44;;;;;;;18.97;12.07;;;;;;;;;;5099609;28;20225;-63
2022/10/13 02:06:15;;;;;;;17.87;11.83;;;;;;;;;;5099080;28;20205;-63
2022/10/13 02:08:46;;;;;;;18.80;13.53;;;;;;;;;;5099297;28;20205;-63
2022/10/13 02:11:15;;;;;;;23.77;13.63;;;;;;;;;;5099025;28;20206;-63
2022/10/13 02:13:48;;;;;;;19.87;12.57;;;;;;;;;;5095857;28;20222;-63
2022/10/13 02:16:19;;;;;;;19.60;13.03;;;;;;;;;;5093933;28;20210;-63
2022/10/13 02:18:49;;;;;;;16.17;11.40;;;;;;;;;;5099059;28;20201;-63
2022/10/13 02:21:17;;;;;;;17.17;12.57;;;;;;;;;;5098691;28;20208;-63
2022/10/13 02:23:46;;;;;;;19.97;12.30;;;;;;;;;;5099018;28;20233;-63
2022/10/13 02:26:14;;;;;;;19.23;13.03;;;;;;;;;;5098977;28;20209;-62
2022/10/13 02:28:42;;;;;;;20.17;12.23;;;;;;;;;;5098737;28;20221;-63
2022/10/13 02:31:10;;;;;;;20.93;12.23;;;;;;;;;;5098788;28;20197;-63
2022/10/13 02:33:38;;;;;;;17.67;12.70;;;;;;;;;;5098749;28;20586;-63
2022/10/13 02:36:07;;;;;;;19.70;12.73;;;;;;;;;;5098423;28;20201;-62
2022/10/13 02:38:35;;;;;;;19.07;12.37;;;;;;;;;;5098961;28;20206;-63
2022/10/13 02:41:03;;;;;;;23.93;13.87;;;;;;;;;;5099127;28;20205;-63
2022/10/13 02:43:32;;;;;;;21.57;13.60;;;;;;;;;;5098859;28;20222;-62
2022/10/13 02:46:00;;;;;;;19.93;13.87;;;;;;;;;;5099105;28;20216;-63
2022/10/13 02:48:28;;;;;;;20.33;13.57;;;;;;;;;;5098615;28;20233;-62
2022/10/13 02:50:56;;;;;;;20.33;14.17;;;;;;;;;;5098619;28;20209;-62
2022/10/13 02:53:25;;;;;;;26.70;14.83;;;;;;;;;;5054062;28;1268351;-63
2022/10/13 02:55:53;;;;;;;27.13;15.80;;;;;;;;;;5099709;28;20210;-62
2022/10/13 02:58:21;;;;;;;27.10;15.63;;;;;;;;;;5099733;28;20205;-62
2022/10/13 03:00:49;;;;;;;29.53;16.47;;;;;;;;;;5099786;28;20213;-62
2022/10/13 03:03:17;;;;;;;28.07;15.83;;;;;;;;;;5099495;28;20233;-63
2022/10/13 03:05:45;;;;;;;25.77;13.77;;;;;;;;;;5099079;28;20779;-63
2022/10/13 03:08:14;;;;;;;27.97;15.10;;;;;;;;;;5099433;28;20230;-63
2022/10/13 03:10:43;;;;;;;25.23;15.10;;;;;;;;;;5098876;28;20205;-63
2022/10/13 03:13:11;;;;;;;24.80;14.43;;;;;;;;;;5095688;28;20209;-63
2022/10/13 03:15:39;;;;;;;23.30;14.83;;;;;;;;;;5099376;28;20209;-62
2022/10/13 03:18:07;;;;;;;21.97;14.07;;;;;;;;;;5099436;28;20201;-63
2022/10/13 03:20:35;;;;;;;24.67;14.50;;;;;;;;;;5094874;28;20567;-63
2022/10/13 03:23:03;;;;;;;24.67;15.13;;;;;;;;;;5096261;28;20198;-63
2022/10/13 03:25:31;;;;;;;26.00;14.20;;;;;;;;;;5092541;28;20202;-63
2022/10/13 03:28:02;;;;;;;30.07;14.13;;;;;;;;;;5097030;28;20666;-63
2022/10/13 03:30:30;;;;;;;23.00;14.67;;;;;;;;;;5094969;28;20224;-63
2022/10/13 03:32:58;;;;;;;25.33;15.23;;;;;;;;;;5094619;28;20276;-62
2022/10/13 03:35:26;;;;;;;29.33;15.03;;;;;;;;;;5097538;28;20212;-63
2022/10/13 03:37:54;;;;;;;24.40;14.33;;;;;;;;;;5095043;28;20209;-63
2022/10/13 03:40:23;;;;;;;27.77;15.27;;;;;;;;;;5097440;28;20197;-63
2022/10/13 03:42:52;;;;;;;26.03;15.13;;;;;;;;;;5094983;28;20212;-63
2022/10/13 03:45:21;;;;;;;29.77;15.80;;;;;;;;;;5094536;28;20743;-63
2022/10/13 03:47:49;;;;;;;26.07;15.17;;;;;;;;;;5094778;28;20213;-62
2022/10/13 03:50:17;;;;;;;26.63;17.13;;;;;;;;;;5094105;28;20201;-63
2022/10/13 03:52:45;;;;;;;31.83;16.50;;;;;;;;;;5097095;28;20307;-63
2022/10/13 03:55:14;;;;;;;36.53;17.97;;;;;;;;;;5092165;28;20228;-63
2022/10/13 03:57:42;;;;;;;30.10;15.67;;;;;;;;;;5094410;28;20621;-62
2022/10/13 04:00:11;;;;;;;28.93;15.50;;;;;;;;;;5098062;28;20209;-63
2022/10/13 04:02:40;;;;;;;24.60;16.13;;;;;;;;;;5098414;28;20211;-63
2022/10/13 04:05:08;;;;;;;36.13;17.07;;;;;;;;;;5097555;28;20225;-63
2022/10/13 04:07:36;;;;;;;28.57;16.47;;;;;;;;;;5097974;28;20243;-62
2022/10/13 04:10:04;;;;;;;31.80;16.93;;;;;;;;;;5098342;28;20209;-62
2022/10/13 04:12:37;;;;;;;33.90;16.50;;;;;;;;;;5098246;28;20258;-63
2022/10/13 04:15:06;;;;;;;29.20;16.17;;;;;;;;;;5097996;28;20236;-63
2022/10/13 04:17:34;;;;;;;31.77;16.33;;;;;;;;;;5098077;28;20202;-63
2022/10/13 04:20:04;;;;;;;29.00;16.23;;;;;;;;;;5097572;28;20205;-64
2022/10/13 04:22:32;;;;;;;27.37;16.20;;;;;;;;;;5097877;28;20672;-62
2022/10/13 04:25:00;;;;;;;29.23;15.90;;;;;;;;;;5097985;28;20225;-62
2022/10/13 04:27:28;;;;;;;27.10;17.33;;;;;;;;;;5097806;28;20205;-61
2022/10/13 04:29:56;;;;;;;29.43;15.93;;;;;;;;;;5096727;28;20212;-62
2022/10/13 04:32:24;;;;;;;38.00;17.70;;;;;;;;;;5097329;28;20198;-62
2022/10/13 04:34:52;;;;;;;31.70;15.87;;;;;;;;;;5094410;28;20225;-61
2022/10/13 04:37:22;;;;;;;31.37;15.30;;;;;;;;;;5098144;28;20283;-62
2022/10/13 04:39:50;;;;;;;34.63;17.80;;;;;;;;;;5097699;28;20197;-62
2022/10/13 04:42:17;;;;;;;34.33;16.40;;;;;;;;;;5097530;28;20688;-62
2022/10/13 04:44:46;;;;;;;32.97;16.00;;;;;;;;;;5094140;28;20274;-63
2022/10/13 04:47:14;;;;;;;36.93;17.90;;;;;;;;;;5096537;28;20194;-61
2022/10/13 04:49:42;;;;;;;37.37;17.50;;;;;;;;;;5093095;28;20586;-61
2022/10/13 04:52:10;;;;;;;28.47;16.53;;;;;;;;;;5093365;28;20201;-63
2022/10/13 04:54:39;;;;;;;28.00;14.97;;;;;;;;;;5096134;28;20617;-62
2022/10/13 04:57:07;;;;;;;31.20;15.80;;;;;;;;;;5088112;28;20209;-61
2022/10/13 04:59:35;;;;;;;27.10;14.10;;;;;;;;;;5096323;28;20190;-62
2022/10/13 05:02:03;;;;;;;24.27;14.37;;;;;;;;;;5092764;28;20222;-62
2022/10/13 05:04:31;;;;;;;24.67;14.87;;;;;;;;;;5096160;28;20218;-61
2022/10/13 05:06:59;;;;;;;21.80;14.30;;;;;;;;;;5093576;28;20223;-63
2022/10/13 05:09:50;;;;;;;20.93;12.77;;;;;;;;;;5091121;28;20696;-61
2022/10/13 05:12:18;;;;;;;21.60;12.30;;;;;;;;;;5093660;28;20220;-63
2022/10/13 05:14:46;;;;;;;24.60;13.00;;;;;;;;;;5097490;28;20225;-63
2022/10/13 05:17:14;;;;;;;24.33;13.50;;;;;;;;;;5097340;28;20589;-64
2022/10/13 05:19:43;;;;;;;22.07;13.80;;;;;;;;;;5097117;28;20208;-63
2022/10/13 05:22:11;;;;;;;26.40;14.10;;;;;;;;;;5097466;28;20210;-60
2022/10/13 05:24:39;;;;;;;21.73;13.13;;;;;;;;;;5097486;28;20229;-60
2022/10/13 05:27:09;;;;;;;28.43;14.77;;;;;;;;;;5097135;28;20205;-61
2022/10/13 05:29:37;;;;;;;23.10;13.80;;;;;;;;;;5097371;28;20221;-61
2022/10/13 05:32:06;;;;;;;21.87;13.77;;;;;;;;;;5097597;28;20217;-61
2022/10/13 05:34:34;;;;;;;24.53;13.77;;;;;;;;;;5097036;28;20233;-61
2022/10/13 05:37:02;;;;;;;30.70;15.77;;;;;;;;;;5097110;28;20228;-61
2022/10/13 05:39:30;;;;;;;27.60;14.37;;;;;;;;;;5096971;28;20571;-60
2022/10/13 05:41:58;;;;;;;26.40;14.30;;;;;;;;;;5096082;28;20205;-60
2022/10/13 05:44:27;;;;;;;25.50;14.43;;;;;;;;;;5090190;28;20217;-59
2022/10/13 05:46:55;;;;;;;27.87;15.50;;;;;;;;;;5099087;28;20200;-60
2022/10/13 05:49:23;;;;;;;31.63;16.13;;;;;;;;;;5096386;28;20217;-60
2022/10/13 05:51:53;;;;;;;29.20;15.40;;;;;;;;;;5099370;28;20201;-61
2022/10/13 05:54:23;;;;;;;31.10;14.30;;;;;;;;;;5096270;28;20248;-59
2022/10/13 05:56:53;;;;;;;30.63;14.17;;;;;;;;;;5099705;28;20198;-60
2022/10/13 05:59:21;;;;;;;20.83;13.40;;;;;;;;;;5094989;28;20198;-61
2022/10/13 06:01:55;;;;;;;25.13;13.27;;;;;;;;;;5097849;28;20205;-60
2022/10/13 06:04:25;;;;;;;35.73;15.77;;;;;;;;;;5100478;28;20309;-61
2022/10/13 06:06:53;;;;;;;26.43;15.33;;;;;;;;;;5100736;28;20218;-61
2022/10/13 06:09:21;;;;;;;29.17;14.13;;;;;;;;;;5100354;28;20236;-60
2022/10/13 06:11:49;;;;;;;27.83;15.63;;;;;;;;;;5100621;28;20207;-61
2022/10/13 06:14:18;;;;;;;25.00;14.63;;;;;;;;;;5099323;28;20221;-62
2022/10/13 06:16:46;;;;;;;28.00;17.43;;;;;;;;;;5100024;28;20213;-61
2022/10/13 06:19:15;;;;;;;32.13;16.50;;;;;;;;;;5097660;28;20193;-61
2022/10/13 06:21:43;;;;;;;29.83;16.03;;;;;;;;;;5099961;28;20209;-60
2022/10/13 06:24:11;;;;;;;31.10;20.43;;;;;;;;;;5100089;28;20233;-61
2022/10/13 06:26:40;;;;;;;24.53;15.47;;;;;;;;;;5100186;28;20217;-61
2022/10/13 06:29:08;;;;;;;26.93;16.47;;;;;;;;;;5099398;28;20248;-61
2022/10/13 06:31:36;;;;;;;27.77;15.30;;;;;;;;;;5099416;28;20274;-61
2022/10/13 06:34:04;;;;;;;28.43;16.40;;;;;;;;;;5099231;28;20566;-62
2022/10/13 06:36:33;;;;;;;24.93;15.00;;;;;;;;;;5100010;28;20202;-60
2022/10/13 06:39:01;;;;;;;24.73;14.50;;;;;;;;;;5099647;28;20315;-60
2022/10/13 06:41:29;;;;;;;26.50;15.13;;;;;;;;;;5099919;28;20206;-61
2022/10/13 06:43:57;;;;;;;24.67;14.63;;;;;;;;;;5099499;28;20233;-62
2022/10/13 06:46:25;;;;;;;29.70;15.20;;;;;;;;;;5099721;28;20210;-62
2022/10/13 06:48:53;;;;;;;27.47;15.43;;;;;;;;;;5099160;28;20217;-62
2022/10/13 06:51:21;;;;;;;26.27;14.37;;;;;;;;;;5099344;28;20210;-62
2022/10/13 06:53:50;;;;;;;28.97;15.67;;;;;;;;;;5099470;28;20241;-62
2022/10/13 06:56:18;;;;;;;27.17;15.33;;;;;;;;;;5099046;28;20213;-62
2022/10/13 06:58:47;;;;;;;34.10;17.67;;;;;;;;;;5098480;28;20210;-62
2022/10/13 07:01:15;;;;;;;28.10;15.57;;;;;;;;;;5099346;28;20687;-60
2022/10/13 07:03:43;;;;;;;24.73;15.87;;;;;;;;;;5099117;28;20228;-61
2022/10/13 07:06:11;;;;;;;26.33;16.53;;;;;;;;;;5098299;28;20216;-62
2022/10/13 07:08:39;;;;;;;33.33;17.33;;;;;;;;;;5099162;28;20213;-61
2022/10/13 07:11:11;;;;;;;30.97;16.70;;;;;;;;;;5099238;28;20221;-61
2022/10/13 07:13:43;;;;;;;31.20;17.23;;;;;;;;;;5099328;28;20316;-61
2022/10/13 07:16:14;;;;;;;33.37;17.00;;;;;;;;;;5099097;28;20274;-61
2022/10/13 07:18:42;;;;;;;33.90;18.60;;;;;;;;;;5098806;28;20233;-60
2022/10/13 07:21:10;;;;;;;33.27;16.70;;;;;;;;;;5098579;28;20206;-61
2022/10/13 07:23:38;;;;;;;30.83;16.80;;;;;;;;;;5098982;28;20231;-63
2022/10/13 07:26:07;;;;;;;35.47;18.40;;;;;;;;;;5098760;28;20238;-64
2022/10/13 07:28:36;;;;;;;35.73;18.37;;;;;;;;;;5098928;28;20571;-65
2022/10/13 07:31:07;;;;;;;35.83;18.80;;;;;;;;;;5098617;28;20221;-64
2022/10/13 07:33:35;;;;;;;35.27;18.13;;;;;;;;;;5098699;28;20243;-63
2022/10/13 07:36:03;;;;;;;36.33;20.13;;;;;;;;;;5097953;28;20201;-65
2022/10/13 07:38:31;;;;;;;39.17;19.07;;;;;;;;;;5093034;28;20204;-63
2022/10/13 07:41:00;;;;;;;31.53;18.73;;;;;;;;;;5098407;28;20561;-64
2022/10/13 07:43:28;;;;;;;37.20;18.80;;;;;;;;;;5098666;28;20222;-64
2022/10/13 07:45:59;;;;;;;38.80;19.30;;;;;;;;;;5098565;28;20202;-63
2022/10/13 07:48:28;;;;;;;35.30;19.60;;;;;;;;;;5098592;28;20202;-63
2022/10/13 07:50:56;;;;;;;41.77;21.13;;;;;;;;;;5098209;28;20234;-64
2022/10/13 07:53:24;;;;;;;38.60;20.53;;;;;;;;;;5097960;28;20603;-64
2022/10/13 07:55:52;;;;;;;34.73;21.37;;;;;;;;;;5098515;28;20202;-64
2022/10/13 07:58:20;;;;;;;36.57;20.10;;;;;;;;;;5098425;28;20209;-64
2022/10/13 08:00:55;;;;;;;34.70;20.33;;;;;;;;;;5098264;28;20201;-65
2022/10/13 08:03:24;;;;;;;35.33;19.47;;;;;;;;;;5098450;28;20229;-65
2022/10/13 08:05:53;;;;;;;38.33;21.43;;;;;;;;;;5097827;28;20209;-65
2022/10/13 08:08:21;;;;;;;34.10;20.30;;;;;;;;;;5097719;28;20677;-64
2022/10/13 08:10:49;;;;;;;39.33;20.57;;;;;;;;;;5096075;28;20228;-65
2022/10/13 08:13:17;;;;;;;41.80;22.40;;;;;;;;;;5094931;28;20229;-65
2022/10/13 08:15:45;;;;;;;39.20;21.97;;;;;;;;;;5097929;28;20201;-65
2022/10/13 08:18:14;;;;;;;45.23;22.50;;;;;;;;;;5097744;28;20688;-65
2022/10/13 08:20:44;;;;;;;47.37;22.83;;;;;;;;;;5097497;28;20584;-64
2022/10/13 08:23:12;;;;;;;50.00;23.10;;;;;;;;;;5097691;28;20205;-64
2022/10/13 08:25:40;;;;;;;41.03;22.70;;;;;;;;;;5097820;28;20210;-64
2022/10/13 08:28:15;;;;;;;46.27;22.83;;;;;;;;;;5097779;28;20212;-63
2022/10/13 08:30:43;;;;;;;53.93;25.33;;;;;;;;;;5097493;28;20616;-65
2022/10/13 08:33:11;;;;;;;50.87;24.77;;;;;;;;;;5097386;28;20638;-63
2022/10/13 08:35:39;;;;;;;50.33;23.80;;;;;;;;;;5097233;28;20210;-65
2022/10/13 08:38:09;;;;;;;57.30;25.43;;;;;;;;;;5098024;28;20205;-65
2022/10/13 08:40:37;;;;;;;49.63;24.77;;;;;;;;;;5097287;28;20212;-64
2022/10/13 08:43:06;;;;;;;47.30;25.07;;;;;;;;;;5097748;28;20220;-65
2022/10/13 08:45:34;;;;;;;50.07;25.00;;;;;;;;;;5097541;28;20205;-65
2022/10/13 08:48:11;;;;;;;48.10;23.93;;;;;;;;;;5097822;28;20212;-65
2022/10/13 08:50:41;;;;;;;43.83;24.70;;;;;;;;;;5097204;28;20586;-64
2022/10/13 08:53:13;;;;;;;50.80;24.83;;;;;;;;;;5097380;28;20233;-64
2022/10/13 08:55:42;;;;;;;59.00;26.00;;;;;;;;;;5097679;28;20216;-64
2022/10/13 08:58:12;;;;;;;51.40;24.87;;;;;;;;;;5097692;28;20205;-64
2022/10/13 09:00:41;;;;;;;44.93;25.77;;;;;;;;;;5097538;28;20676;-63
2022/10/13 09:03:19;;;;;;;52.33;25.40;;;;;;;;;;5097285;28;20218;-63
2022/10/13 09:05:55;;;;;;;46.33;26.03;;;;;;;;;;5093373;28;20204;-63
2022/10/13 09:08:26;;;;;;;50.80;25.00;;;;;;;;;;5096234;28;20210;-63
2022/10/13 09:10:54;;;;;;;50.80;25.80;;;;;;;;;;5097060;28;20572;-63
2022/10/13 09:13:22;;;;;;;50.97;26.00;;;;;;;;;;5097420;28;20232;-63
2022/10/13 09:15:50;;;;;;;53.30;26.27;;;;;;;;;;5097571;28;20212;-62
2022/10/13 09:18:18;;;;;;;49.60;25.60;;;;;;;;;;5094843;28;20198;-62
2022/10/13 09:20:46;;;;;;;50.53;26.87;;;;;;;;;;5087656;28;20563;-62
2022/10/13 09:23:18;;;;;;;50.17;25.13;;;;;;;;;;5097869;28;20661;-65
2022/10/13 09:25:49;;;;;;;52.63;25.80;;;;;;;;;;5101002;28;20212;-64
2022/10/13 09:28:19;;;;;;;59.60;26.43;;;;;;;;;;5096396;28;20209;-64
2022/10/13 09:30:47;;;;;;;46.33;24.53;;;;;;;;;;5100859;28;20510;-63
2022/10/13 09:33:20;;;;;;;48.27;25.30;;;;;;;;;;5100971;28;20210;-63
2022/10/13 09:35:49;;;;;;;44.50;25.07;;;;;;;;;;5100067;28;20205;-64
2022/10/13 09:38:19;;;;;;;45.67;24.53;;;;;;;;;;5099166;28;20287;-63
2022/10/13 09:40:58;;;;;;;47.83;24.80;;;;;;;;;;5100947;28;20209;-63
2022/10/13 09:43:29;;;;;;;46.13;23.30;;;;;;;;;;5092588;28;20225;-64
2022/10/13 09:45:57;;;;;;;50.80;25.40;;;;;;;;;;5100515;28;20240;-63
2022/10/13 09:48:27;;;;;;;47.37;25.30;;;;;;;;;;5100749;28;20214;-62
2022/10/13 09:50:55;;;;;;;48.33;25.03;;;;;;;;;;5099883;28;20696;-63
2022/10/13 09:53:26;;;;;;;51.80;25.57;;;;;;;;;;5100940;28;20248;-63
2022/10/13 09:56:08;;;;;;;48.60;25.90;;;;;;;;;;5100796;28;20212;-62
2022/10/13 09:58:38;;;;;;;54.93;24.87;;;;;;;;;;5101177;28;20213;-64
2022/10/13 10:01:08;;;;;;;45.80;25.00;;;;;;;;;;5100277;28;20255;-61
2022/10/13 10:03:38;;;;;;;50.33;25.07;;;;;;;;;;5100264;28;20222;-62
2022/10/13 10:06:07;;;;;;;47.40;23.87;;;;;;;;;;5084207;28;20236;-63
2022/10/13 10:08:45;;;;;;;50.00;24.83;;;;;;;;;;5102810;28;20567;-62
2022/10/13 10:11:33;;;;;;;49.57;24.23;;;;;;;;;;5103937;28;20263;-62
2022/10/13 10:14:12;;;;;;;43.10;24.83;;;;;;;;;;5106193;28;20216;-62
2022/10/13 10:16:43;;;;;;;46.60;23.50;;;;;;;;;;5102069;28;20197;-63
2022/10/13 10:19:17;;;;;;;51.03;25.60;;;;;;;;;;5092200;28;20681;-63
2022/10/13 10:21:48;;;;;;;45.00;24.80;;;;;;;;;;5100176;28;20211;-63
2022/10/13 10:24:21;;;;;;;49.07;24.03;;;;;;;;;;5096156;28;20702;-64
2022/10/13 10:26:55;;;;;;;43.37;22.57;;;;;;;;;;5093468;28;20202;-64
2022/10/13 10:29:26;;;;;;;38.27;23.67;;;;;;;;;;5095454;28;21628;-64
2022/10/13 10:31:58;;;;;;;57.50;24.47;;;;;;;;;;5099122;28;20589;-64
2022/10/13 10:34:34;;;;;;;39.43;22.07;;;;;;;;;;5098995;28;20225;-64
2022/10/13 10:37:17;;;;;;;38.60;22.43;;;;;;;;;;5099293;28;20693;-64
2022/10/13 10:39:52;;;;;;;43.10;23.73;;;;;;;;;;5100195;28;20204;-64
2022/10/13 10:42:31;;;;;;;42.07;23.47;;;;;;;;;;5099045;28;20684;-64
2022/10/13 10:45:02;;;;;;;42.33;22.60;;;;;;;;;;5099232;28;20236;-64
2022/10/13 10:47:36;;;;;;;40.10;23.47;;;;;;;;;;5099461;28;20212;-64
2022/10/13 10:50:05;;;;;;;34.70;21.63;;;;;;;;;;5099151;28;20206;-64
2022/10/13 10:52:37;;;;;;;44.70;23.47;;;;;;;;;;5099262;28;20241;-64
2022/10/13 10:55:14;;;;;;;31.80;20.10;;;;;;;;;;5099270;28;20229;-64
2022/10/13 10:57:51;;;;;;;41.40;22.30;;;;;;;;;;5091452;28;20209;-65
2022/10/13 11:00:20;;;;;;;35.33;21.30;;;;;;;;;;5091974;28;20212;-65
2022/10/13 11:02:53;;;;;;;34.50;20.93;;;;;;;;;;5098628;28;20198;-65
2022/10/13 11:05:21;;;;;;;31.90;19.60;;;;;;;;;;5098858;28;20575;-64
2022/10/13 11:07:57;;;;;;;34.43;19.87;;;;;;;;;;5099152;28;20221;-64
2022/10/13 11:10:26;;;;;;;34.03;21.70;;;;;;;;;;5099288;28;20215;-65
2022/10/13 11:13:15;;;;;;;32.97;19.30;;;;;;;;;;5098352;28;20732;-65
2022/10/13 11:15:44;;;;;;;30.37;19.83;;;;;;;;;;5098928;28;20205;-65
2022/10/13 11:18:30;;;;;;;34.23;18.67;;;;;;;;;;5098412;28;20543;-65
2022/10/13 11:20:59;;;;;;;31.63;18.30;;;;;;;;;;5098610;28;20235;-65
2022/10/13 11:23:30;;;;;;;27.00;17.73;;;;;;;;;;5098295;28;20712;-65
2022/10/13 11:26:13;;;;;;;27.40;16.23;;;;;;;;;;5098195;28;20205;-65
2022/10/13 11:28:47;;;;;;;29.83;15.57;;;;;;;;;;5089073;28;20209;-65
2022/10/13 11:31:29;;;;;;;26.30;16.20;;;;;;;;;;5098215;28;20217;-65
2022/10/13 11:34:02;;;;;;;26.40;16.47;;;;;;;;;;5098331;28;20301;-65
2022/10/13 11:36:46;;;;;;;25.03;15.03;;;;;;;;;;5095330;28;20202;-65
2022/10/13 11:39:31;;;;;;;22.90;14.43;;;;;;;;;;5098360;28;20214;-65
2022/10/13 11:42:05;;;;;;;22.13;15.40;;;;;;;;;;5095211;28;20223;-65
2022/10/13 11:44:37;;;;;;;28.27;14.40;;;;;;;;;;5093785;28;20679;-65
2022/10/13 11:47:11;;;;;;;23.83;13.70;;;;;;;;;;5097753;28;20216;-65
2022/10/13 11:49:45;;;;;;;29.97;14.90;;;;;;;;;;5097649;28;20660;-65
2022/10/13 11:52:40;;;;;;;19.83;13.50;;;;;;;;;;5097551;28;20595;-65
2022/10/13 11:55:12;;;;;;;20.30;11.87;;;;;;;;;;5067496;28;20229;-65
2022/10/13 11:57:40;;;;;;;20.00;11.57;;;;;;;;;;5095061;28;20236;-65
2022/10/13 12:00:13;;;;;;;22.37;13.80;;;;;;;;;;5089357;28;20194;-65
2022/10/13 12:02:47;;;;;;;22.13;12.77;;;;;;;;;;5097854;28;20211;-65
2022/10/13 12:05:20;;;;;;;22.13;13.27;;;;;;;;;;5097600;28;20225;-65
2022/10/13 12:07:49;;;;;;;22.30;13.30;;;;;;;;;;5097742;28;20571;-65
2022/10/13 12:10:19;;;;;;;21.13;13.10;;;;;;;;;;5097384;28;20687;-65
2022/10/13 12:12:48;;;;;;;22.17;12.73;;;;;;;;;;5097523;28;20229;-65
2022/10/13 12:15:30;;;;;;;14.63;11.33;;;;;;;;;;5097662;28;20320;-65
2022/10/13 12:17:58;;;;;;;16.90;12.67;;;;;;;;;;5097708;28;20220;-65
2022/10/13 12:20:26;;;;;;;19.77;12.30;;;;;;;;;;5097409;28;20201;-65
2022/10/13 12:22:55;;;;;;;18.30;10.10;;;;;;;;;;5097618;28;20211;-64
2022/10/13 12:25:24;;;;;;;17.30;10.70;;;;;;;;;;5097627;28;20206;-65
2022/10/13 12:27:52;;;;;;;42.23;24.40;;;;;;;;;;5096814;28;20205;-64
2022/10/13 12:30:21;;;;;;;20.60;14.27;;;;;;;;;;5097955;28;20213;-65
2022/10/13 12:32:52;;;;;;;22.00;11.00;;;;;;;;;;5097234;28;20221;-65
2022/10/13 12:35:20;;;;;;;17.40;10.77;;;;;;;;;;5097119;28;20226;-64
2022/10/13 12:37:48;;;;;;;16.47;10.40;;;;;;;;;;5097527;28;20201;-65
2022/10/13 12:40:17;;;;;;;15.93;10.23;;;;;;;;;;5097724;28;20217;-64
2022/10/13 12:42:46;;;;;;;17.00;10.30;;;;;;;;;;5096990;28;20203;-64
2022/10/13 12:45:15;;;;;;;17.47;10.57;;;;;;;;;;5096913;28;20221;-65
2022/10/13 12:47:47;;;;;;;16.63;10.77;;;;;;;;;;5097391;28;20291;-65
2022/10/13 12:50:36;;;;;;;17.90;11.33;;;;;;;;;;5096835;28;20222;-65
2022/10/13 12:53:15;;;;;;;13.67;9.90;;;;;;;;;;5088312;28;20243;-65
2022/10/13 12:55:48;;;;;;;15.73;10.30;;;;;;;;;;5100314;28;20577;-65
2022/10/13 12:58:18;;;;;;;15.90;11.03;;;;;;;;;;5101283;28;20287;-66
2022/10/13 13:00:54;;;;;;;15.10;10.47;;;;;;;;;;5093879;28;20217;-65
2022/10/13 13:03:25;;;;;;;15.07;10.50;;;;;;;;;;5100947;28;20629;-65
2022/10/13 13:06:08;;;;;;;16.23;9.77;;;;;;;;;;5101503;28;20221;-65
2022/10/13 13:08:36;;;;;;;14.13;9.73;;;;;;;;;;5101134;28;20213;-65
2022/10/13 13:11:05;;;;;;;15.67;9.50;;;;;;;;;;5100863;28;20212;-65
2022/10/13 13:13:34;;;;;;;16.90;9.63;;;;;;;;;;5101148;28;20247;-65
2022/10/13 13:16:15;;;;;;;15.07;10.07;;;;;;;;;;5101560;28;20289;-65
2022/10/13 13:18:43;;;;;;;14.80;9.70;;;;;;;;;;5100386;28;20202;-65
2022/10/13 13:21:14;;;;;;;15.17;9.97;;;;;;;;;;5100976;28;20207;-65
2022/10/13 13:23:42;;;;;;;14.60;10.17;;;;;;;;;;5101189;28;20226;-64
2022/10/13 13:26:14;;;;;;;15.47;9.80;;;;;;;;;;5106325;28;20681;-63
2022/10/13 13:28:44;;;;;;;15.60;10.27;;;;;;;;;;5101234;28;20205;-65
2022/10/13 13:31:12;;;;;;;16.30;9.87;;;;;;;;;;5100768;28;20740;-66
2022/10/13 13:33:40;;;;;;;14.37;9.77;;;;;;;;;;5093044;28;20239;-65
2022/10/13 13:36:13;;;;;;;17.20;10.23;;;;;;;;;;5100573;28;20199;-64
2022/10/13 13:38:42;;;;;;;14.90;9.50;;;;;;;;;;5101064;28;20219;-64
2022/10/13 13:41:10;;;;;;;17.87;10.93;;;;;;;;;;5100258;28;20609;-65
2022/10/13 13:43:39;;;;;;;16.67;9.70;;;;;;;;;;5100771;28;20225;-65
2022/10/13 13:46:07;;;;;;;10.70;8.67;;;;;;;;;;5100488;28;20696;-65
2022/10/13 13:48:35;;;;;;;14.77;8.93;;;;;;;;;;5100498;28;20213;-65
2022/10/13 13:51:03;;;;;;;16.20;9.17;;;;;;;;;;5099282;28;20229;-65
2022/10/13 13:53:31;;;;;;;16.83;8.77;;;;;;;;;;5100094;28;20241;-65
2022/10/13 13:56:00;;;;;;;13.00;8.27;;;;;;;;;;5097225;28;20217;-65
2022/10/13 13:58:28;;;;;;;11.10;8.00;;;;;;;;;;5100518;28;20217;-65
2022/10/13 14:00:56;;;;;;;12.73;8.80;;;;;;;;;;5097898;28;20209;-65
2022/10/13 14:03:24;;;;;;;17.37;9.53;;;;;;;;;;5100049;28;20214;-65
2022/10/13 14:05:52;;;;;;;15.17;9.23;;;;;;;;;;5099616;28;20210;-65
2022/10/13 14:08:20;;;;;;;11.70;8.07;;;;;;;;;;5105131;28;20210;-65
2022/10/13 14:10:48;;;;;;;14.47;9.60;;;;;;;;;;5105206;28;20544;-65
2022/10/13 14:13:18;;;;;;;14.57;9.23;;;;;;;;;;5100199;28;20329;-65
2022/10/13 14:15:46;;;;;;;16.73;9.23;;;;;;;;;;5100187;28;20209;-65
2022/10/13 14:18:15;;;;;;;12.87;9.33;;;;;;;;;;5090850;28;20204;-65
2022/10/13 14:20:43;;;;;;;15.53;9.13;;;;;;;;;;5099663;28;20212;-65
2022/10/13 14:23:11;;;;;;;16.77;10.00;;;;;;;;;;5099423;28;20219;-65
2022/10/13 14:25:39;;;;;;;17.90;9.73;;;;;;;;;;5099607;28;20210;-65
2022/10/13 14:28:06;;;;;;;17.00;11.30;;;;;;;;;;5099514;28;20229;-65
2022/10/13 14:30:38;;;;;;;18.20;10.63;;;;;;;;;;5099895;28;20209;-64
2022/10/13 14:33:06;;;;;;;17.57;10.17;;;;;;;;;;5096746;28;20289;-64
2022/10/13 14:35:34;;;;;;;16.87;9.37;;;;;;;;;;5099259;28;20305;-64